Time;durP1;ratioP1;P1;durP2;ratioP2;P2;SDS_P1;SDS_P2;PMS_P1;PMS_P2;Temp;Humidity;BMP_temperature;BMP_pressure;BME280_temperature;BME280_humidity;BME280_pressure;Samples;Min_cycle;Max_cycle;Signal;HPM_P1;HPM_P2
2021/01/07 00:00:20;;;;;;;4.82;2.70;;;1.80;93.90;;;;;;4995707;28;20046;-58
2021/01/07 00:02:46;;;;;;;4.07;2.53;;;1.90;93.90;;;;;;4995789;28;20046;-58
2021/01/07 00:05:12;;;;;;;3.35;2.28;;;1.80;93.90;;;;;;4995879;28;20038;-57
2021/01/07 00:07:38;;;;;;;6.90;2.97;;;1.80;94.10;;;;;;4995469;28;20047;-58
2021/01/07 00:10:05;;;;;;;5.45;2.95;;;1.80;93.90;;;;;;4995558;28;20097;-58
2021/01/07 00:12:31;;;;;;;5.78;2.88;;;1.80;94.10;;;;;;4995702;28;20049;-58
2021/01/07 00:14:57;;;;;;;6.97;2.78;;;1.80;94.10;;;;;;4995246;28;20431;-58
2021/01/07 00:17:25;;;;;;;3.50;2.20;;;1.80;94.20;;;;;;4995586;28;20085;-58
2021/01/07 00:19:52;;;;;;;8.60;2.60;;;1.80;94.10;;;;;;4995214;28;20062;-58
2021/01/07 00:22:17;;;;;;;6.28;2.60;;;1.80;94.10;;;;;;4995565;28;20042;-58
2021/01/07 00:24:43;;;;;;;5.70;2.75;;;1.90;94.00;;;;;;4995151;28;20070;-58
2021/01/07 00:27:09;;;;;;;6.15;2.63;;;1.80;94.10;;;;;;4995167;28;20436;-58
2021/01/07 00:29:34;;;;;;;3.75;1.95;;;1.80;94.20;;;;;;4994765;28;20129;-58
2021/01/07 00:32:00;;;;;;;4.05;2.20;;;1.90;94.10;;;;;;4994823;28;20042;-58
2021/01/07 00:34:26;;;;;;;3.58;2.28;;;1.80;94.30;;;;;;4995258;28;20104;-58
2021/01/07 00:36:56;;;;;;;4.00;2.03;;;1.90;94.00;;;;;;5002016;28;20038;-58
2021/01/07 00:39:23;;;;;;;4.00;2.30;;;1.80;94.20;;;;;;4994969;28;20053;-58
2021/01/07 00:41:55;;;;;;;3.33;1.95;;;1.90;93.90;;;;;;4994993;28;20053;-58
2021/01/07 00:44:21;;;;;;;3.92;2.10;;;1.90;93.90;;;;;;4994937;28;20049;-58
2021/01/07 00:46:47;;;;;;;4.88;2.05;;;1.90;94.20;;;;;;4994910;28;20061;-57
2021/01/07 00:49:13;;;;;;;2.47;1.98;;;1.90;94.20;;;;;;4994758;28;20365;-58
2021/01/07 00:51:38;;;;;;;2.05;1.80;;;1.90;94.20;;;;;;4994730;28;20046;-58
2021/01/07 00:54:04;;;;;;;5.20;2.67;;;1.90;94.40;;;;;;4994801;28;20043;-57
2021/01/07 00:56:35;;;;;;;3.92;1.75;;;1.90;94.30;;;;;;4994804;28;20053;-58
2021/01/07 00:59:01;;;;;;;3.05;2.00;;;1.90;94.50;;;;;;4994529;28;20038;-58
2021/01/07 01:01:26;;;;;;;2.65;1.92;;;1.80;94.60;;;;;;4994448;28;20389;-58
2021/01/07 01:03:52;;;;;;;2.67;1.83;;;1.90;94.50;;;;;;4994250;28;20054;-57
2021/01/07 01:06:18;;;;;;;3.10;1.95;;;1.80;94.80;;;;;;4994466;28;20049;-57
2021/01/07 01:08:43;;;;;;;3.00;1.90;;;1.80;94.40;;;;;;4994655;28;20477;-58
2021/01/07 01:11:09;;;;;;;3.25;1.67;;;1.90;94.80;;;;;;4994216;28;20053;-57
2021/01/07 01:13:35;;;;;;;2.55;1.92;;;1.90;94.60;;;;;;4994495;28;20130;-58
2021/01/07 01:16:00;;;;;;;2.97;1.33;;;1.80;94.80;;;;;;4993704;28;20411;-58
2021/01/07 01:18:27;;;;;;;1.80;1.55;;;1.90;94.50;;;;;;4994178;28;20061;-58
2021/01/07 01:20:52;;;;;;;3.90;2.00;;;1.90;94.30;;;;;;4994349;28;20046;-58
2021/01/07 01:23:18;;;;;;;3.35;1.80;;;1.80;94.90;;;;;;4994043;28;20069;-58
2021/01/07 01:25:44;;;;;;;2.63;1.75;;;1.80;94.80;;;;;;4994362;28;20453;-58
2021/01/07 01:28:09;;;;;;;2.70;1.60;;;1.80;94.90;;;;;;4994092;28;20048;-57
2021/01/07 01:30:35;;;;;;;3.40;1.60;;;1.90;94.70;;;;;;4993879;28;20046;-58
2021/01/07 01:33:01;;;;;;;3.22;1.63;;;1.80;94.70;;;;;;4993944;28;20042;-58
2021/01/07 01:35:26;;;;;;;4.75;2.40;;;1.80;94.80;;;;;;4994202;28;20132;-58
2021/01/07 01:37:52;;;;;;;6.93;1.73;;;1.80;95.10;;;;;;4994189;28;20045;-57
2021/01/07 01:40:19;;;;;;;2.65;1.70;;;1.80;95.20;;;;;;4993662;28;20042;-58
2021/01/07 01:42:47;;;;;;;2.83;1.70;;;1.80;95.10;;;;;;4994008;28;20153;-58
2021/01/07 01:45:13;;;;;;;3.33;1.85;;;1.80;95.20;;;;;;4994147;28;20153;-58
2021/01/07 01:47:39;;;;;;;2.50;1.95;;;1.90;95.10;;;;;;4994017;28;20053;-58
2021/01/07 01:50:05;;;;;;;5.05;1.80;;;1.90;95.10;;;;;;4994048;28;20042;-58
2021/01/07 01:52:31;;;;;;;3.00;1.83;;;1.90;95.00;;;;;;4994030;28;20046;-58
2021/01/07 01:54:58;;;;;;;4.18;2.03;;;1.90;95.20;;;;;;4994058;28;20500;-58
2021/01/07 01:57:27;;;;;;;4.05;2.15;;;1.90;95.20;;;;;;4993850;28;20038;-58
2021/01/07 01:59:53;;;;;;;;;;;1.90;95.10;;;;;;4994212;28;20137;-58
2021/01/07 02:02:22;;;;;;;3.83;2.35;;;1.80;95.20;;;;;;4993690;28;20013;-58
2021/01/07 02:04:48;;;;;;;2.75;1.80;;;1.80;95.30;;;;;;4994048;28;20046;-57
2021/01/07 02:07:18;;;;;;;4.38;2.20;;;1.90;95.40;;;;;;4993921;28;20089;-58
2021/01/07 02:09:45;;;;;;;2.67;1.73;;;1.90;95.30;;;;;;4993691;28;20050;-58
2021/01/07 02:12:11;;;;;;;2.13;1.67;;;1.90;95.30;;;;;;4993703;28;20151;-58
2021/01/07 02:14:41;;;;;;;4.97;2.42;;;1.90;95.20;;;;;;4993408;28;20100;-57
2021/01/07 02:17:07;;;;;;;8.10;2.45;;;1.90;95.20;;;;;;4993489;28;20065;-58
2021/01/07 02:19:34;;;;;;;4.30;1.75;;;1.90;95.40;;;;;;4993789;28;20055;-58
2021/01/07 02:22:00;;;;;;;5.80;1.98;;;2.00;95.30;;;;;;4997313;28;20042;-58
2021/01/07 02:24:28;;;;;;;2.58;1.88;;;1.90;95.50;;;;;;4997871;28;20053;-58
2021/01/07 02:26:58;;;;;;;2.60;1.50;;;1.90;95.50;;;;;;4997255;28;20492;-58
2021/01/07 02:29:24;;;;;;;4.57;2.08;;;1.90;95.60;;;;;;4997240;28;20042;-58
2021/01/07 02:31:49;;;;;;;5.55;1.98;;;1.90;95.60;;;;;;4996920;28;20093;-58
2021/01/07 02:34:15;;;;;;;3.20;1.90;;;1.90;95.60;;;;;;4997510;28;20058;-58
2021/01/07 02:36:41;;;;;;;3.30;1.70;;;2.00;95.50;;;;;;4997274;28;20078;-57
2021/01/07 02:39:07;;;;;;;2.47;2.03;;;1.90;95.40;;;;;;4997400;28;20428;-58
2021/01/07 02:41:33;;;;;;;3.05;1.90;;;2.00;95.60;;;;;;4997111;28;20050;-58
2021/01/07 02:43:59;;;;;;;3.85;2.15;;;2.00;95.40;;;;;;4996951;28;20496;-58
2021/01/07 02:46:24;;;;;;;4.50;2.00;;;2.00;95.40;;;;;;4997648;28;20051;-58
2021/01/07 02:48:50;;;;;;;2.75;2.10;;;2.00;95.20;;;;;;4996793;28;20038;-58
2021/01/07 02:51:16;;;;;;;2.85;1.70;;;2.00;95.30;;;;;;4997091;28;20093;-58
2021/01/07 02:53:42;;;;;;;3.83;1.83;;;2.00;95.30;;;;;;4997015;28;20129;-58
2021/01/07 02:56:08;;;;;;;2.13;1.63;;;2.00;95.30;;;;;;4997101;28;20060;-58
2021/01/07 02:58:33;;;;;;;3.17;1.70;;;2.00;95.40;;;;;;4996700;28;20054;-58
2021/01/07 03:00:59;;;;;;;5.00;1.90;;;2.00;95.30;;;;;;4997030;28;20051;-58
2021/01/07 03:03:25;;;;;;;2.83;1.77;;;2.00;95.10;;;;;;4996437;28;20049;-58
2021/01/07 03:05:51;;;;;;;2.42;1.75;;;2.00;95.40;;;;;;4999302;28;20042;-58
2021/01/07 03:08:16;;;;;;;2.35;1.95;;;2.00;95.20;;;;;;4996673;28;20089;-58
2021/01/07 03:10:42;;;;;;;4.53;2.00;;;2.00;95.30;;;;;;4997022;28;20138;-58
2021/01/07 03:13:08;;;;;;;4.45;1.88;;;2.10;95.10;;;;;;4996671;28;20046;-58
2021/01/07 03:15:33;;;;;;;3.28;1.92;;;2.00;95.20;;;;;;4996520;28;20089;-58
2021/01/07 03:17:59;;;;;;;1.67;1.45;;;2.00;95.30;;;;;;4996594;28;20240;-58
2021/01/07 03:20:25;;;;;;;3.80;1.50;;;2.10;95.20;;;;;;4996675;28;20050;-57
2021/01/07 03:22:51;;;;;;;3.13;1.90;;;2.10;94.90;;;;;;4996891;28;20382;-58
2021/01/07 03:25:17;;;;;;;2.45;1.45;;;2.00;95.10;;;;;;4996472;28;20104;-58
2021/01/07 03:27:43;;;;;;;3.22;1.40;;;2.00;95.00;;;;;;4994792;28;20461;-57
2021/01/07 03:30:10;;;;;;;4.22;1.80;;;2.10;95.00;;;;;;4996273;28;20066;-58
2021/01/07 03:32:36;;;;;;;5.40;1.70;;;2.00;94.70;;;;;;4995151;28;20129;-57
2021/01/07 03:35:06;;;;;;;6.15;1.73;;;2.00;95.00;;;;;;4996265;28;20054;-58
2021/01/07 03:37:32;;;;;;;3.15;1.55;;;2.00;94.90;;;;;;4996257;28;20097;-58
2021/01/07 03:39:58;;;;;;;3.20;1.85;;;2.00;94.80;;;;;;4996150;28;20046;-58
2021/01/07 03:42:24;;;;;;;2.53;1.70;;;2.00;94.70;;;;;;4996393;28;20052;-58
2021/01/07 03:44:50;;;;;;;2.05;1.40;;;2.00;94.70;;;;;;4996114;28;20119;-58
2021/01/07 03:47:16;;;;;;;3.15;2.13;;;2.00;94.80;;;;;;4995937;28;20129;-58
2021/01/07 03:49:41;;;;;;;1.98;1.45;;;2.00;95.10;;;;;;4996093;28;20043;-57
2021/01/07 03:52:07;;;;;;;4.95;1.75;;;2.00;94.90;;;;;;4996012;28;20559;-58
2021/01/07 03:54:33;;;;;;;3.55;1.30;;;1.90;95.10;;;;;;4996089;28;20057;-57
2021/01/07 03:56:58;;;;;;;2.30;1.30;;;2.00;94.90;;;;;;4995898;28;20042;-58
2021/01/07 03:59:24;;;;;;;3.45;1.58;;;2.10;94.80;;;;;;4995737;28;20082;-53
2021/01/07 04:01:50;;;;;;;2.03;1.77;;;2.00;94.90;;;;;;4994646;28;20436;-53
2021/01/07 04:04:15;;;;;;;3.15;1.80;;;2.00;95.00;;;;;;4995012;28;20452;-55
2021/01/07 04:06:41;;;;;;;3.10;1.42;;;2.00;94.80;;;;;;4994772;28;20494;-54
2021/01/07 04:09:07;;;;;;;2.25;1.75;;;2.00;94.80;;;;;;4994774;28;20088;-53
2021/01/07 04:11:32;;;;;;;7.82;1.80;;;2.00;94.80;;;;;;4995054;28;20113;-52
2021/01/07 04:13:58;;;;;;;1.90;1.30;;;2.00;94.90;;;;;;4994489;28;20042;-54
2021/01/07 04:16:24;;;;;;;4.60;1.50;;;2.00;94.90;;;;;;4994618;28;20145;-53
2021/01/07 04:18:50;;;;;;;4.40;1.60;;;2.00;94.90;;;;;;4994382;28;20535;-54
2021/01/07 04:21:20;;;;;;;2.25;1.40;;;2.00;95.00;;;;;;4994441;28;20050;-53
2021/01/07 04:23:46;;;;;;;2.72;1.65;;;2.00;94.80;;;;;;4994532;28;20076;-53
2021/01/07 04:26:13;;;;;;;3.28;1.60;;;2.10;94.80;;;;;;5025538;28;20492;-54
2021/01/07 04:28:39;;;;;;;2.25;1.75;;;2.00;94.60;;;;;;4994385;28;20046;-53
2021/01/07 04:31:04;;;;;;;2.05;1.70;;;2.00;94.80;;;;;;4993772;28;20046;-54
2021/01/07 04:33:30;;;;;;;2.90;1.70;;;2.00;94.60;;;;;;4992688;28;20042;-54
2021/01/07 04:35:56;;;;;;;4.35;2.08;;;2.00;94.60;;;;;;4993937;28;20054;-53
2021/01/07 04:38:22;;;;;;;2.67;2.03;;;2.00;94.70;;;;;;4994381;28;20042;-53
2021/01/07 04:40:47;;;;;;;2.42;2.00;;;2.00;94.90;;;;;;4994102;28;20097;-52
2021/01/07 04:43:13;;;;;;;4.72;2.20;;;2.00;94.70;;;;;;4993801;28;20042;-53
2021/01/07 04:45:39;;;;;;;5.28;2.38;;;2.00;94.90;;;;;;4994179;28;20038;-53
2021/01/07 04:48:07;;;;;;;4.15;2.47;;;2.00;95.10;;;;;;4993962;28;20088;-53
2021/01/07 04:50:33;;;;;;;2.58;2.28;;;1.90;94.90;;;;;;4994336;28;20046;-54
2021/01/07 04:52:59;;;;;;;3.80;2.90;;;1.90;95.00;;;;;;4993850;28;20038;-53
2021/01/07 04:55:25;;;;;;;4.00;2.70;;;2.00;94.80;;;;;;4993927;28;20049;-54
2021/01/07 04:57:51;;;;;;;3.78;2.95;;;2.00;94.80;;;;;;4993768;28;20125;-53
2021/01/07 05:00:17;;;;;;;5.30;3.20;;;2.00;94.90;;;;;;4993599;28;20495;-54
2021/01/07 05:02:43;;;;;;;8.93;3.50;;;2.00;94.80;;;;;;4993932;28;20049;-52
2021/01/07 05:05:09;;;;;;;3.80;2.78;;;2.00;94.70;;;;;;4993441;28;20038;-53
2021/01/07 05:07:38;;;;;;;4.63;2.95;;;2.00;94.80;;;;;;4993725;28;20042;-53
2021/01/07 05:10:07;;;;;;;9.40;2.97;;;2.00;94.80;;;;;;4993550;28;20038;-53
2021/01/07 05:12:33;;;;;;;5.45;2.92;;;2.00;95.10;;;;;;4993417;28;20058;-54
2021/01/07 05:14:59;;;;;;;4.03;2.75;;;2.00;94.90;;;;;;4993540;28;20145;-53
2021/01/07 05:17:25;;;;;;;4.10;2.97;;;2.00;94.90;;;;;;4993587;28;20181;-54
2021/01/07 05:19:51;;;;;;;3.33;2.53;;;2.10;94.90;;;;;;4993336;28;20050;-52
2021/01/07 05:22:17;;;;;;;4.22;2.55;;;2.10;94.90;;;;;;4993611;28;20409;-53
2021/01/07 05:24:43;;;;;;;3.42;2.67;;;2.10;94.90;;;;;;4993323;28;20048;-55
2021/01/07 05:27:10;;;;;;;7.50;3.30;;;2.10;94.90;;;;;;4993137;28;20443;-54
2021/01/07 05:29:40;;;;;;;5.85;3.05;;;2.00;94.90;;;;;;4993415;28;20042;-55
2021/01/07 05:32:11;;;;;;;7.35;2.58;;;2.00;95.10;;;;;;4993203;28;20050;-53
2021/01/07 05:34:49;;;;;;;4.75;2.90;;;2.00;95.10;;;;;;4993008;28;20537;-52
2021/01/07 05:37:17;;;;;;;6.07;3.00;;;2.10;95.10;;;;;;4992945;28;20035;-52
2021/01/07 05:39:52;;;;;;;2.80;2.38;;;2.10;95.10;;;;;;4992737;28;20042;-53
2021/01/07 05:42:17;;;;;;;5.70;2.80;;;2.10;94.90;;;;;;4993278;28;20129;-52
2021/01/07 05:44:47;;;;;;;5.55;3.40;;;2.10;94.90;;;;;;4992762;28;20484;-54
2021/01/07 05:47:23;;;;;;;4.45;2.85;;;2.10;94.90;;;;;;4993104;28;20046;-54
2021/01/07 05:49:49;;;;;;;5.82;3.33;;;2.10;95.20;;;;;;4992923;28;20046;-53
2021/01/07 05:52:15;;;;;;;6.60;2.53;;;2.20;95.10;;;;;;4985186;28;20070;-54
2021/01/07 05:54:43;;;;;;;4.20;2.63;;;2.20;95.20;;;;;;4989164;28;20050;-53
2021/01/07 05:57:11;;;;;;;3.75;2.85;;;2.20;95.00;;;;;;4993025;28;20129;-55
2021/01/07 05:59:40;;;;;;;8.45;2.95;;;2.20;94.90;;;;;;4992630;28;20046;-54
2021/01/07 06:02:09;;;;;;;6.00;2.92;;;2.20;95.10;;;;;;4992844;28;20046;-52
2021/01/07 06:04:36;;;;;;;3.42;2.78;;;2.30;94.80;;;;;;4992529;28;20844;-54
2021/01/07 06:07:04;;;;;;;6.22;3.42;;;2.20;94.80;;;;;;4991626;28;20648;-52
2021/01/07 06:09:30;;;;;;;4.13;2.45;;;2.30;94.80;;;;;;4992949;28;20052;-54
2021/01/07 06:12:00;;;;;;;6.85;3.00;;;2.30;94.80;;;;;;4992886;28;20081;-53
2021/01/07 06:14:26;;;;;;;3.15;2.35;;;2.20;94.70;;;;;;4992436;28;20488;-54
2021/01/07 06:16:56;;;;;;;4.03;2.92;;;2.30;94.80;;;;;;4992506;28;20109;-53
2021/01/07 06:19:39;;;;;;;3.60;2.50;;;2.30;94.90;;;;;;4992470;28;20045;-54
2021/01/07 06:22:23;;;;;;;6.03;3.00;;;2.30;94.90;;;;;;4992536;28;20046;-54
2021/01/07 06:24:56;;;;;;;3.13;2.60;;;2.30;95.00;;;;;;4992756;28;20061;-52
2021/01/07 06:27:25;;;;;;;4.13;2.83;;;2.30;95.00;;;;;;4988519;28;20214;-54
2021/01/07 06:30:00;;;;;;;4.22;2.85;;;2.20;95.00;;;;;;4999083;28;20050;-58
2021/01/07 06:32:28;;;;;;;4.72;2.65;;;2.20;95.30;;;;;;4993467;28;20042;-58
2021/01/07 06:34:55;;;;;;;5.82;2.97;;;2.20;95.40;;;;;;4993216;28;20066;-58
2021/01/07 06:37:35;;;;;;;7.30;2.88;;;2.20;95.10;;;;;;4993008;28;20093;-58
2021/01/07 06:40:06;;;;;;;4.15;2.72;;;2.30;95.00;;;;;;4989784;28;20070;-58
2021/01/07 06:42:53;;;;;;;5.65;2.65;;;2.30;95.00;;;;;;4983492;28;20409;-58
2021/01/07 06:45:23;;;;;;;3.78;2.63;;;2.30;95.00;;;;;;4991380;28;20055;-57
2021/01/07 06:47:56;;;;;;;11.18;3.20;;;2.30;95.00;;;;;;4988755;28;20046;-58
2021/01/07 06:50:25;;;;;;;4.18;3.20;;;2.20;95.10;;;;;;4980438;28;20043;-58
2021/01/07 06:52:51;;;;;;;5.15;2.97;;;2.30;95.10;;;;;;4977257;28;20085;-57
2021/01/07 06:55:21;;;;;;;5.07;3.20;;;2.30;95.20;;;;;;4977196;28;20068;-53
2021/01/07 06:57:49;;;;;;;4.90;3.30;;;2.30;95.20;;;;;;4972769;28;20043;-54
2021/01/07 07:00:16;;;;;;;4.90;3.20;;;2.20;95.20;;;;;;4977443;28;20119;-54
2021/01/07 07:03:01;;;;;;;5.47;3.28;;;2.40;95.20;;;;;;4985429;28;20401;-53
2021/01/07 07:05:32;;;;;;;4.38;3.10;;;2.20;95.20;;;;;;4983347;28;20043;-53
2021/01/07 07:08:08;;;;;;;5.78;3.38;;;2.30;95.10;;;;;;4977419;28;20061;-54
2021/01/07 07:10:34;;;;;;;7.57;3.15;;;2.30;95.00;;;;;;4978413;28;20073;-54
2021/01/07 07:13:14;;;;;;;4.63;3.17;;;2.30;95.20;;;;;;4978188;28;20047;-54
2021/01/07 07:15:40;;;;;;;6.82;3.53;;;2.30;95.00;;;;;;4984745;28;20059;-54
2021/01/07 07:18:07;;;;;;;5.97;3.10;;;2.30;95.00;;;;;;4987089;28;20133;-53
2021/01/07 07:20:39;;;;;;;4.45;2.97;;;2.30;95.20;;;;;;4991064;28;20045;-53
2021/01/07 07:23:22;;;;;;;7.80;4.20;;;2.30;95.20;;;;;;4993865;28;20034;-53
2021/01/07 07:25:50;;;;;;;4.43;3.42;;;2.30;95.20;;;;;;4995327;28;20057;-57
2021/01/07 07:28:18;;;;;;;4.38;3.22;;;2.30;95.20;;;;;;4990101;28;20039;-58
2021/01/07 07:30:47;;;;;;;4.05;3.42;;;2.30;95.10;;;;;;4993678;28;20169;-57
2021/01/07 07:33:31;;;;;;;6.10;3.85;;;2.30;95.00;;;;;;5005790;28;20042;-58
2021/01/07 07:35:57;;;;;;;5.38;3.65;;;2.30;95.10;;;;;;4995899;28;20129;-58
2021/01/07 07:38:29;;;;;;;8.57;3.70;;;2.30;95.10;;;;;;4995956;28;20389;-58
2021/01/07 07:41:01;;;;;;;4.40;3.55;;;2.30;95.10;;;;;;4994749;28;20038;-58
2021/01/07 07:43:29;;;;;;;5.82;3.70;;;2.30;95.10;;;;;;4994594;28;20534;-58
2021/01/07 07:45:55;;;;;;;5.60;3.47;;;2.30;95.20;;;;;;4997724;28;20047;-58
2021/01/07 07:48:25;;;;;;;5.03;3.50;;;2.30;95.00;;;;;;5000570;28;20038;-55
2021/01/07 07:51:04;;;;;;;7.63;3.72;;;2.30;95.00;;;;;;4994758;28;20050;-55
2021/01/07 07:53:29;;;;;;;4.60;3.63;;;2.30;95.00;;;;;;5002331;28;20111;-55
2021/01/07 07:55:55;;;;;;;4.30;3.22;;;2.30;95.10;;;;;;4995595;28;20046;-58
2021/01/07 07:58:21;;;;;;;8.70;3.95;;;2.40;95.00;;;;;;4985515;28;20070;-57
2021/01/07 08:00:57;;;;;;;7.35;4.10;;;2.30;95.00;;;;;;4981296;28;20039;-58
2021/01/07 08:03:24;;;;;;;3.92;3.10;;;2.40;95.00;;;;;;4975793;28;20054;-58
2021/01/07 08:05:50;;;;;;;5.70;3.25;;;2.30;95.10;;;;;;4980326;28;20043;-58
2021/01/07 08:08:24;;;;;;;7.78;3.90;;;2.40;95.10;;;;;;4981876;28;20045;-58
2021/01/07 08:10:52;;;;;;;6.43;3.78;;;2.30;95.00;;;;;;4986327;28;20074;-55
2021/01/07 08:13:22;;;;;;;8.52;3.50;;;2.40;95.10;;;;;;4981025;28;20046;-55
2021/01/07 08:15:50;;;;;;;4.07;3.53;;;2.30;95.00;;;;;;4985403;28;20120;-55
2021/01/07 08:18:22;;;;;;;6.88;3.55;;;2.40;95.00;;;;;;4992759;28;20393;-55
2021/01/07 08:20:51;;;;;;;5.05;3.03;;;2.40;95.20;;;;;;4992530;28;20060;-55
2021/01/07 08:23:18;;;;;;;7.85;3.42;;;2.40;94.80;;;;;;4992555;28;20038;-55
2021/01/07 08:25:51;;;;;;;4.15;3.00;;;2.40;95.00;;;;;;4993974;28;20046;-55
2021/01/07 08:28:40;;;;;;;6.93;3.30;;;2.50;95.00;;;;;;4998628;28;20054;-55
2021/01/07 08:31:19;;;;;;;6.38;2.92;;;2.50;94.90;;;;;;4993916;28;20057;-55
2021/01/07 08:33:47;;;;;;;7.72;3.53;;;2.50;94.90;;;;;;4993905;28;20058;-55
2021/01/07 08:36:16;;;;;;;7.22;3.03;;;2.50;95.00;;;;;;4993925;28;20117;-55
2021/01/07 08:38:49;;;;;;;4.63;3.03;;;2.50;94.80;;;;;;4993830;28;20046;-55
2021/01/07 08:41:20;;;;;;;4.93;3.05;;;2.60;94.90;;;;;;4993677;28;20129;-55
2021/01/07 08:43:47;;;;;;;4.25;2.95;;;2.60;94.80;;;;;;5005235;28;20046;-55
2021/01/07 08:46:16;;;;;;;7.30;3.33;;;2.50;94.90;;;;;;4993759;28;20077;-55
2021/01/07 08:48:43;;;;;;;4.32;3.13;;;2.60;94.90;;;;;;4993419;28;20388;-55
2021/01/07 08:51:20;;;;;;;3.60;2.83;;;2.60;94.80;;;;;;4993473;28;20046;-55
2021/01/07 08:53:56;;;;;;;4.35;3.15;;;2.60;94.90;;;;;;4993358;28;20480;-55
2021/01/07 08:56:48;;;;;;;9.65;3.45;;;2.70;94.80;;;;;;4993589;28;20042;-55
2021/01/07 08:59:25;;;;;;;4.85;3.65;;;2.70;94.90;;;;;;4993297;28;20058;-55
2021/01/07 09:02:21;;;;;;;5.07;3.78;;;2.70;94.90;;;;;;4992006;28;20034;-55
2021/01/07 09:04:51;;;;;;;5.95;3.63;;;2.70;95.10;;;;;;4993263;28;20080;-55
2021/01/07 09:07:17;;;;;;;;;;;2.70;94.70;;;;;;4995069;28;20049;-55
2021/01/07 09:09:48;;;;;;;6.35;3.95;;;2.80;94.70;;;;;;4993448;28;19956;-58
2021/01/07 09:12:24;;;;;;;6.03;3.35;;;2.80;94.70;;;;;;4997630;28;20046;-58
2021/01/07 09:15:04;;;;;;;6.13;3.47;;;2.80;94.80;;;;;;4995164;28;20122;-58
2021/01/07 09:17:43;;;;;;;6.35;3.70;;;2.80;94.80;;;;;;4993800;28;20045;-58
2021/01/07 09:20:12;;;;;;;6.93;3.97;;;2.80;94.80;;;;;;4993768;28;20540;-58
2021/01/07 09:22:39;;;;;;;8.35;2.97;;;2.90;94.60;;;;;;4993405;28;20049;-58
2021/01/07 09:25:06;;;;;;;5.80;3.53;;;2.90;94.50;;;;;;4995043;28;20061;-58
2021/01/07 09:27:31;;;;;;;7.35;3.85;;;2.90;94.50;;;;;;4993094;28;20038;-55
2021/01/07 09:29:58;;;;;;;4.68;3.20;;;2.90;94.70;;;;;;4992336;28;20101;-55
2021/01/07 09:32:23;;;;;;;4.90;3.17;;;3.00;94.60;;;;;;4996545;28;20042;-55
2021/01/07 09:34:49;;;;;;;6.68;3.15;;;3.00;94.50;;;;;;4996883;28;20030;-55
2021/01/07 09:37:17;;;;;;;5.35;3.47;;;3.00;94.50;;;;;;4993098;28;20081;-55
2021/01/07 09:39:44;;;;;;;4.72;3.45;;;3.00;95.00;;;;;;4992777;28;20038;-55
2021/01/07 09:42:11;;;;;;;8.80;3.55;;;2.90;94.80;;;;;;4992993;28;20034;-55
2021/01/07 09:44:37;;;;;;;6.15;2.90;;;3.00;94.60;;;;;;4992939;28;20050;-55
2021/01/07 09:47:04;;;;;;;4.40;2.97;;;3.00;94.70;;;;;;4993032;28;20034;-55
2021/01/07 09:49:31;;;;;;;5.38;3.33;;;3.00;94.50;;;;;;4994088;28;20365;-58
2021/01/07 09:51:57;;;;;;;5.57;3.22;;;3.00;94.90;;;;;;4995752;28;20049;-55
2021/01/07 09:54:24;;;;;;;5.63;3.65;;;3.10;95.00;;;;;;4993006;28;20046;-55
2021/01/07 09:56:54;;;;;;;5.78;4.05;;;3.10;95.00;;;;;;4992025;28;20499;-55
2021/01/07 09:59:21;;;;;;;4.78;3.25;;;3.10;95.00;;;;;;4994059;28;20038;-58
2021/01/07 10:01:51;;;;;;;3.95;2.70;;;3.00;95.10;;;;;;4992501;28;20411;-58
2021/01/07 10:04:18;;;;;;;5.25;2.70;;;3.00;95.10;;;;;;4993323;28;20077;-57
2021/01/07 10:06:43;;;;;;;9.00;3.38;;;3.10;94.90;;;;;;4992173;28;20049;-58
2021/01/07 10:09:09;;;;;;;7.95;3.20;;;3.10;94.90;;;;;;4996085;28;20121;-57
2021/01/07 10:11:35;;;;;;;6.80;3.28;;;3.10;95.20;;;;;;4994860;28;20046;-58
2021/01/07 10:14:01;;;;;;;6.07;3.00;;;3.20;95.00;;;;;;4994562;28;20128;-58
2021/01/07 10:16:27;;;;;;;7.13;3.30;;;3.20;95.10;;;;;;4993068;28;20400;-58
2021/01/07 10:18:54;;;;;;;6.63;2.65;;;3.20;95.20;;;;;;4991704;28;20050;-57
2021/01/07 10:21:22;;;;;;;9.27;3.20;;;3.30;94.90;;;;;;4992813;28;20089;-58
2021/01/07 10:23:48;;;;;;;6.70;3.53;;;3.20;95.00;;;;;;4996672;28;20050;-58
2021/01/07 10:26:19;;;;;;;7.35;3.85;;;3.20;95.10;;;;;;4992659;28;20034;-55
2021/01/07 10:28:46;;;;;;;6.65;3.72;;;3.30;95.00;;;;;;4992192;28;20038;-55
2021/01/07 10:31:17;;;;;;;5.82;3.42;;;3.30;95.30;;;;;;4992343;28;20076;-55
2021/01/07 10:33:46;;;;;;;9.75;3.70;;;3.40;94.90;;;;;;4992625;28;20050;-55
2021/01/07 10:36:16;;;;;;;7.25;3.28;;;3.40;94.80;;;;;;4992119;28;20043;-56
2021/01/07 10:38:45;;;;;;;7.32;3.55;;;3.40;95.00;;;;;;4999847;28;20076;-55
2021/01/07 10:41:13;;;;;;;5.85;3.30;;;3.40;95.30;;;;;;4994613;28;20046;-55
2021/01/07 10:43:39;;;;;;;6.35;3.17;;;3.50;95.30;;;;;;4985037;28;20038;-55
2021/01/07 10:46:05;;;;;;;6.63;3.70;;;3.50;95.20;;;;;;4996333;28;20524;-55
2021/01/07 10:48:35;;;;;;;5.32;3.40;;;3.60;94.80;;;;;;4996029;28;20038;-55
2021/01/07 10:51:03;;;;;;;8.23;3.40;;;3.60;95.00;;;;;;4996122;28;20050;-55
2021/01/07 10:54:15;;;;;;;5.57;3.30;;;3.60;95.30;;;;;;4996293;28;20157;-55
2021/01/07 10:57:16;;;;;;;8.23;3.17;;;3.60;94.70;;;;;;4916960;29;20561;-55
2021/01/07 11:00:05;;;;;;;11.23;2.92;;;3.70;94.70;;;;;;4879207;29;20044;-55
2021/01/07 11:03:08;;;;;;;3.88;2.50;;;3.70;94.70;;;;;;4878866;29;20051;-57
2021/01/07 11:05:37;;;;;;;6.25;3.08;;;3.80;94.70;;;;;;4878929;29;20407;-56
2021/01/07 11:08:18;;;;;;;4.07;2.90;;;3.80;95.10;;;;;;4879069;29;20047;-55
2021/01/07 11:10:53;;;;;;;4.15;2.10;;;3.90;95.20;;;;;;4878683;29;20056;-55
2021/01/07 11:13:23;;;;;;;6.60;2.80;;;3.90;94.50;;;;;;4879121;29;20049;-55
2021/01/07 11:15:56;;;;;;;5.07;2.58;;;4.00;95.00;;;;;;4878512;29;20057;-56
2021/01/07 11:18:29;;;;;;;5.40;2.55;;;4.10;94.80;;;;;;4878441;29;20056;-56
2021/01/07 11:21:04;;;;;;;2.90;2.55;;;4.10;94.70;;;;;;4878305;29;20056;-55
2021/01/07 11:23:31;;;;;;;6.82;2.80;;;4.20;94.50;;;;;;4878716;29;20059;-55
2021/01/07 11:25:57;;;;;;;3.67;2.47;;;4.20;95.20;;;;;;4878333;29;20535;-55
2021/01/07 11:28:23;;;;;;;2.45;1.80;;;4.30;95.10;;;;;;4878846;29;20044;-55
2021/01/07 11:30:49;;;;;;;2.05;1.60;;;4.40;94.60;;;;;;4878608;29;20045;-55
2021/01/07 11:33:18;;;;;;;3.10;1.90;;;4.40;94.50;;;;;;4964274;28;20046;-56
2021/01/07 11:35:47;;;;;;;2.40;1.90;;;4.40;94.10;;;;;;4980748;28;20042;-55
2021/01/07 11:38:24;;;;;;;5.25;1.40;;;4.30;94.30;;;;;;4995359;28;20346;-55
2021/01/07 11:41:06;;;;;;;3.10;1.83;;;4.30;93.80;;;;;;4995002;28;20436;-55
2021/01/07 11:43:50;;;;;;;2.47;1.40;;;4.30;93.70;;;;;;4995033;28;20899;-55
2021/01/07 11:46:20;;;;;;;2.42;1.58;;;4.30;93.70;;;;;;4994752;28;20116;-55
2021/01/07 11:48:57;;;;;;;1.95;1.17;;;4.30;93.40;;;;;;4986525;28;20042;-55
2021/01/07 11:51:23;;;;;;;3.40;1.70;;;4.30;93.10;;;;;;4994999;28;20047;-55
2021/01/07 11:53:50;;;;;;;2.88;1.52;;;4.20;93.90;;;;;;4993844;28;20054;-55
2021/01/07 11:56:17;;;;;;;5.47;1.42;;;4.20;94.00;;;;;;4994946;28;20042;-55
2021/01/07 11:58:44;;;;;;;3.47;1.35;;;4.20;93.00;;;;;;4994659;28;20083;-55
2021/01/07 12:01:10;;;;;;;3.05;1.30;;;4.20;93.40;;;;;;4994964;28;20399;-54
2021/01/07 12:03:36;;;;;;;2.28;1.15;;;4.20;94.20;;;;;;4994973;28;20042;-55
2021/01/07 12:06:05;;;;;;;3.00;1.52;;;4.20;93.70;;;;;;4994594;28;20165;-55
2021/01/07 12:09:12;;;;;;;5.53;1.30;;;4.20;94.10;;;;;;4994658;28;20394;-55
2021/01/07 12:11:44;;;;;;;3.42;1.25;;;4.20;93.90;;;;;;4994772;28;20408;-55
2021/01/07 12:14:12;;;;;;;3.42;1.00;;;4.30;94.10;;;;;;4994607;28;20050;-55
2021/01/07 12:16:49;;;;;;;2.72;1.05;;;4.30;94.10;;;;;;4994248;28;20062;-55
2021/01/07 12:19:15;;;;;;;1.83;1.20;;;4.30;94.10;;;;;;4994437;28;20104;-55
2021/01/07 12:21:42;;;;;;;3.45;1.00;;;4.30;94.00;;;;;;4994420;28;20042;-55
2021/01/07 12:24:11;;;;;;;1.92;1.15;;;4.30;93.60;;;;;;4994506;28;20774;-55
2021/01/07 12:26:37;;;;;;;2.83;1.05;;;4.30;94.10;;;;;;4993295;28;20042;-56
2021/01/07 12:29:04;;;;;;;4.93;1.10;;;4.40;94.10;;;;;;4994390;28;20189;-56
2021/01/07 12:31:32;;;;;;;2.45;1.10;;;4.30;93.70;;;;;;4994407;28;20050;-55
2021/01/07 12:34:19;;;;;;;1.02;0.85;;;4.30;93.40;;;;;;4994155;28;20060;-56
2021/01/07 12:37:03;;;;;;;4.53;1.00;;;4.30;93.80;;;;;;4994173;28;20096;-56
2021/01/07 12:39:50;;;;;;;1.40;1.08;;;4.40;94.00;;;;;;4994297;28;20074;-56
2021/01/07 12:42:22;;;;;;;1.83;1.02;;;4.30;93.90;;;;;;4993841;28;20120;-55
2021/01/07 12:44:49;;;;;;;1.20;1.05;;;4.40;94.30;;;;;;4994315;28;20046;-56
2021/01/07 12:47:15;;;;;;;3.10;1.38;;;4.40;94.20;;;;;;4994142;28;20488;-56
2021/01/07 12:49:43;;;;;;;2.08;1.13;;;4.40;94.10;;;;;;4994393;28;20043;-55
2021/01/07 12:52:09;;;;;;;4.35;1.25;;;4.40;93.70;;;;;;4994008;28;20695;-55
2021/01/07 12:54:38;;;;;;;4.47;1.13;;;4.30;93.70;;;;;;4994036;28;20061;-56
2021/01/07 12:57:20;;;;;;;4.03;1.30;;;4.30;94.00;;;;;;4993786;28;20057;-56
2021/01/07 12:59:55;;;;;;;1.20;0.88;;;4.30;93.80;;;;;;4993902;28;20133;-56
2021/01/07 13:02:29;;;;;;;0.77;0.77;;;4.30;94.00;;;;;;4993577;28;20081;-56
2021/01/07 13:05:02;;;;;;;2.60;0.70;;;4.30;93.60;;;;;;4993276;28;20043;-55
2021/01/07 13:07:32;;;;;;;3.17;0.90;;;4.20;92.90;;;;;;4993272;28;20521;-55